createdAt,value
2018-07-19T00:04:03.409Z,3.70
2018-07-19T00:06:31.618Z,4.17
2018-07-19T00:14:40.344Z,4.40
2018-07-19T00:17:08.612Z,5.87
2018-07-19T00:19:36.901Z,8.30
2018-07-19T00:22:05.120Z,6.00
2018-07-19T00:24:33.344Z,5.33
2018-07-19T00:27:01.547Z,5.03
2018-07-19T00:29:29.802Z,4.70
2018-07-19T00:31:58.015Z,4.07
2018-07-19T00:34:26.244Z,4.30
2018-07-19T00:36:54.474Z,4.73
2018-07-19T00:39:22.705Z,4.77
2018-07-19T00:41:50.904Z,4.93
2018-07-19T00:44:19.178Z,5.53
2018-07-19T00:46:47.322Z,5.33
2018-07-19T00:49:15.550Z,5.67
2018-07-19T00:51:43.770Z,4.97
2018-07-19T00:54:11.978Z,4.60
2018-07-19T00:56:40.197Z,5.23
2018-07-19T00:59:08.420Z,5.20
2018-07-19T01:01:36.626Z,5.23
2018-07-19T01:04:04.829Z,5.00
2018-07-19T01:06:33.048Z,5.07
2018-07-19T01:09:01.283Z,4.83
2018-07-19T01:11:29.522Z,5.67
2018-07-19T01:13:57.778Z,5.20
2018-07-19T01:16:26.021Z,5.27
2018-07-19T01:18:54.296Z,5.20
2018-07-19T01:21:22.522Z,5.47
2018-07-19T01:23:50.742Z,5.43
2018-07-19T01:26:18.947Z,5.63
2018-07-19T01:28:47.139Z,4.90
2018-07-19T01:31:15.470Z,5.50
2018-07-19T01:33:43.677Z,5.50
2018-07-19T01:36:11.896Z,5.50
2018-07-19T01:38:40.139Z,5.20
2018-07-19T01:41:19.695Z,4.70
2018-07-19T01:43:47.897Z,5.23
2018-07-19T01:46:16.133Z,5.50
2018-07-19T01:48:44.327Z,5.50
2018-07-19T01:51:12.556Z,5.40
2018-07-19T01:53:40.761Z,5.10
2018-07-19T01:56:08.979Z,5.70
2018-07-19T01:58:37.185Z,4.70
2018-07-19T02:01:05.411Z,5.30
2018-07-19T02:03:33.620Z,5.53
2018-07-19T02:06:01.858Z,5.73
2018-07-19T02:08:30.075Z,4.90
2018-07-19T02:10:58.289Z,5.47
2018-07-19T02:13:26.507Z,4.87
2018-07-19T02:15:54.734Z,5.73
2018-07-19T02:18:22.960Z,5.40
2018-07-19T02:20:51.204Z,5.60
2018-07-19T02:23:19.430Z,5.10
2018-07-19T02:25:47.644Z,5.77
2018-07-19T02:28:15.852Z,5.10
2018-07-19T02:30:44.067Z,5.93
2018-07-19T02:33:12.269Z,5.20
2018-07-19T02:35:40.498Z,5.27
2018-07-19T02:38:08.709Z,5.93
2018-07-19T02:40:36.951Z,5.50
2018-07-19T02:43:05.187Z,5.30
2018-07-19T02:45:33.438Z,5.20
2018-07-19T02:48:01.638Z,5.53
2018-07-19T02:50:29.881Z,5.77
2018-07-19T02:52:58.102Z,6.27
2018-07-19T02:55:26.326Z,5.90
2018-07-19T02:57:54.580Z,6.40
2018-07-19T03:00:22.773Z,6.20
2018-07-19T03:02:50.975Z,6.40
2018-07-19T03:05:19.182Z,6.00
2018-07-19T03:07:47.483Z,6.33
2018-07-19T03:10:15.634Z,5.60
2018-07-19T03:12:43.859Z,5.90
2018-07-19T03:15:12.074Z,6.33
2018-07-19T03:17:43.269Z,6.00
2018-07-19T03:20:11.480Z,6.20
2018-07-19T03:22:39.701Z,5.97
2018-07-19T03:25:07.970Z,5.97
2018-07-19T03:27:36.179Z,6.63
2018-07-19T03:30:04.722Z,5.73
2018-07-19T03:32:32.958Z,6.10
2018-07-19T03:35:01.175Z,5.80
2018-07-19T03:37:29.394Z,7.10
2018-07-19T03:39:57.601Z,6.07
2018-07-19T03:42:25.806Z,6.23
2018-07-19T03:44:54.018Z,5.80
2018-07-19T03:47:22.237Z,5.60
2018-07-19T03:49:50.437Z,6.70
2018-07-19T03:52:18.644Z,6.33
2018-07-19T03:54:46.860Z,6.37
2018-07-19T03:57:15.088Z,6.47
2018-07-19T03:59:43.310Z,7.33
2018-07-19T04:02:11.535Z,6.83
2018-07-19T04:04:39.763Z,6.87
2018-07-19T04:07:07.986Z,6.03
2018-07-19T04:09:36.255Z,6.70
2018-07-19T04:12:04.460Z,6.40
2018-07-19T04:14:32.711Z,6.10
2018-07-19T04:17:01.102Z,6.30
2018-07-19T04:19:29.299Z,6.37
2018-07-19T04:21:57.497Z,5.70
2018-07-19T04:24:25.711Z,6.20
2018-07-19T04:26:53.930Z,6.77
2018-07-19T04:29:23.013Z,6.00
2018-07-19T04:31:51.428Z,7.13
2018-07-19T04:34:19.674Z,6.27
2018-07-19T04:36:47.899Z,6.20
2018-07-19T04:39:16.200Z,7.23
2018-07-19T04:41:44.483Z,6.00
2018-07-19T04:44:13.013Z,6.30
2018-07-19T04:46:41.251Z,6.20
2018-07-19T04:49:09.486Z,6.13
2018-07-19T04:51:37.730Z,5.80
2018-07-19T04:54:06.306Z,6.20
2018-07-19T04:56:34.556Z,5.80
2018-07-19T04:59:03.230Z,6.57
2018-07-19T05:01:31.496Z,6.30
2018-07-19T05:03:59.713Z,6.20
2018-07-19T05:06:27.927Z,6.10
2018-07-19T05:08:56.158Z,6.47
2018-07-19T05:11:24.379Z,5.83
2018-07-19T05:13:52.605Z,5.97
2018-07-19T05:16:20.820Z,6.67
2018-07-19T05:18:49.066Z,6.33
2018-07-19T05:21:17.281Z,6.10
2018-07-19T05:23:45.506Z,6.00
2018-07-19T05:26:13.746Z,5.93
2018-07-19T05:28:41.946Z,6.17
2018-07-19T05:31:10.153Z,5.80
2018-07-19T05:33:38.363Z,5.80
2018-07-19T05:36:06.804Z,5.70
2018-07-19T05:38:35.035Z,5.77
2018-07-19T05:41:03.363Z,5.50
2018-07-19T05:43:31.650Z,5.23
2018-07-19T05:45:59.857Z,5.87
2018-07-19T05:48:28.053Z,5.83
2018-07-19T05:50:56.270Z,6.00
2018-07-19T05:53:24.464Z,6.10
2018-07-19T05:55:52.863Z,6.93
2018-07-19T05:58:21.110Z,6.27
2018-07-19T06:00:49.470Z,7.10
2018-07-19T06:03:17.693Z,7.00
2018-07-19T06:05:45.909Z,6.13
2018-07-19T06:08:14.114Z,7.17
2018-07-19T06:10:42.338Z,7.00
2018-07-19T06:13:10.554Z,7.07
2018-07-19T06:15:38.779Z,7.17
2018-07-19T06:18:06.979Z,7.60
2018-07-19T06:20:35.217Z,6.93
2018-07-19T06:23:03.429Z,7.33
2018-07-19T06:25:31.645Z,6.97
2018-07-19T06:27:59.858Z,6.97
2018-07-19T06:30:28.106Z,6.70
2018-07-19T06:32:56.335Z,6.50
2018-07-19T06:35:24.558Z,6.90
2018-07-19T06:37:52.768Z,7.37
2018-07-19T06:40:20.985Z,7.43
2018-07-19T06:42:49.187Z,7.20
2018-07-19T06:45:17.459Z,6.10
2018-07-19T06:47:45.703Z,6.40
2018-07-19T06:50:13.898Z,6.57
2018-07-19T06:52:42.109Z,6.60
2018-07-19T06:55:10.316Z,6.17
2018-07-19T06:57:38.537Z,6.50
2018-07-19T07:00:07.557Z,6.67
2018-07-19T07:02:35.815Z,6.83
2018-07-19T07:05:04.339Z,6.10
2018-07-19T07:07:32.566Z,6.40
2018-07-19T07:10:00.782Z,6.00
2018-07-19T07:12:29.024Z,6.50
2018-07-19T07:14:57.262Z,6.33
2018-07-19T07:17:25.483Z,5.83
2018-07-19T07:19:53.710Z,5.60
2018-07-19T07:22:21.931Z,6.37
2018-07-19T07:24:50.153Z,5.90
2018-07-19T07:27:18.450Z,5.30
2018-07-19T07:29:46.647Z,5.00
2018-07-19T07:32:14.883Z,5.13
2018-07-19T07:34:43.095Z,5.60
2018-07-19T07:37:11.322Z,5.87
2018-07-19T07:39:39.552Z,5.10
2018-07-19T07:42:07.798Z,5.97
2018-07-19T07:44:36.038Z,5.63
2018-07-19T07:47:04.282Z,5.47
2018-07-19T07:49:32.806Z,5.63
2018-07-19T07:52:01.047Z,5.80
2018-07-19T07:54:29.256Z,5.40
2018-07-19T07:56:57.489Z,5.10
2018-07-19T07:59:25.821Z,5.00
2018-07-19T08:01:53.937Z,5.40
2018-07-19T08:04:22.139Z,4.93
2018-07-19T08:06:50.341Z,4.33
2018-07-19T08:09:18.555Z,4.50
2018-07-19T08:11:46.790Z,4.60
2018-07-19T08:14:15.003Z,4.73
2018-07-19T08:16:43.259Z,4.70
2018-07-19T08:19:11.448Z,5.47
2018-07-19T08:21:39.685Z,4.40
2018-07-19T08:24:07.909Z,4.97
2018-07-19T08:26:36.157Z,5.20
2018-07-19T08:29:04.453Z,4.77
2018-07-19T08:31:32.630Z,4.97
2018-07-19T08:34:00.872Z,4.20
2018-07-19T08:36:29.078Z,4.30
2018-07-19T08:38:57.334Z,4.20
2018-07-19T08:41:25.580Z,4.63
2018-07-19T08:43:53.807Z,4.77
2018-07-19T08:46:22.058Z,4.43
2018-07-19T08:48:50.304Z,4.40
2018-07-19T08:51:18.516Z,4.83
2018-07-19T08:53:46.729Z,4.73
2018-07-19T08:56:14.933Z,4.93
2018-07-19T08:58:43.172Z,4.33
2018-07-19T09:01:11.396Z,4.90
2018-07-19T09:03:39.626Z,4.00
2018-07-19T09:06:07.837Z,5.13
2018-07-19T09:08:36.121Z,8.80
2018-07-19T09:11:04.307Z,5.13
2018-07-19T09:13:32.533Z,4.63
2018-07-19T09:16:00.808Z,10.93
2018-07-19T09:18:29.002Z,4.40
2018-07-19T09:20:57.224Z,4.77
2018-07-19T09:23:25.445Z,5.53
2018-07-19T09:25:53.643Z,5.77
2018-07-19T09:28:21.913Z,5.80
2018-07-19T09:30:50.117Z,4.67
2018-07-19T09:33:18.339Z,4.80
2018-07-19T09:35:46.541Z,5.10
2018-07-19T09:38:14.774Z,5.30
2018-07-19T09:40:42.990Z,5.20
2018-07-19T09:43:11.255Z,5.30
2018-07-19T09:45:39.468Z,4.60
2018-07-19T09:48:07.725Z,5.03
2018-07-19T09:50:35.938Z,5.00
2018-07-19T09:53:04.134Z,4.70
2018-07-19T09:55:32.344Z,4.83
2018-07-19T09:58:00.584Z,4.40
2018-07-19T10:00:34.177Z,4.80
2018-07-19T10:03:02.386Z,4.60
2018-07-19T10:05:30.620Z,4.90
2018-07-19T10:07:58.831Z,4.90
2018-07-19T10:10:27.034Z,4.90
2018-07-19T10:12:55.339Z,4.30
2018-07-19T10:15:23.595Z,4.50
2018-07-19T10:17:51.790Z,5.20
2018-07-19T10:20:20.124Z,4.20
2018-07-19T10:22:48.333Z,5.13
2018-07-19T10:25:16.935Z,4.70
2018-07-19T10:27:45.134Z,4.27
2018-07-19T10:30:13.358Z,4.50
2018-07-19T10:32:41.684Z,4.50
2018-07-19T10:35:09.865Z,4.93
2018-07-19T10:37:38.077Z,4.43
2018-07-19T10:40:06.338Z,3.90
2018-07-19T10:42:34.563Z,4.20
2018-07-19T10:45:02.801Z,4.90
2018-07-19T10:47:31.005Z,4.20
2018-07-19T10:49:59.215Z,4.37
2018-07-19T10:52:27.414Z,5.00
2018-07-19T10:54:55.623Z,4.33
2018-07-19T10:57:23.856Z,4.93
2018-07-19T10:59:52.060Z,4.80
2018-07-19T11:02:20.289Z,5.03
2018-07-19T11:04:48.499Z,4.97
2018-07-19T11:07:16.742Z,4.67
2018-07-19T11:09:45.054Z,4.03
2018-07-19T11:12:13.176Z,4.37
2018-07-19T11:14:41.394Z,5.20
2018-07-19T11:17:09.625Z,4.40
2018-07-19T11:19:37.843Z,4.80
2018-07-19T11:22:06.077Z,4.73
2018-07-19T11:24:34.283Z,5.07
2018-07-19T11:27:02.496Z,4.57
2018-07-19T11:29:30.771Z,4.77
2018-07-19T11:31:58.986Z,4.60
2018-07-19T11:34:27.190Z,4.30
2018-07-19T11:36:55.414Z,4.13
2018-07-19T11:39:23.739Z,4.43
2018-07-19T11:41:51.967Z,4.67
2018-07-19T11:44:20.174Z,4.90
2018-07-19T11:46:48.440Z,5.03
2018-07-19T11:49:16.660Z,4.50
2018-07-19T11:51:44.867Z,4.63
2018-07-19T11:54:13.098Z,4.10
2018-07-19T11:56:41.305Z,4.40
2018-07-19T11:59:09.554Z,5.30
2018-07-19T12:01:37.827Z,4.70
2018-07-19T12:04:06.230Z,4.47
2018-07-19T12:06:34.529Z,4.33
2018-07-19T12:09:02.781Z,4.27
2018-07-19T12:11:31.109Z,4.60
2018-07-19T12:13:59.355Z,4.47
2018-07-19T12:16:27.592Z,4.60
2018-07-19T12:18:55.857Z,4.67
2018-07-19T12:21:24.150Z,4.50
2018-07-19T12:23:52.372Z,4.60
2018-07-19T12:26:20.633Z,4.90
2018-07-19T12:28:48.836Z,4.20
2018-07-19T12:31:17.223Z,4.47
2018-07-19T12:33:45.805Z,4.13
2018-07-19T12:36:14.023Z,4.33
2018-07-19T12:38:42.330Z,4.57
2018-07-19T12:41:10.572Z,4.60
2018-07-19T12:43:38.769Z,4.00
2018-07-19T12:46:07.025Z,4.53
2018-07-19T12:48:35.226Z,4.10
2018-07-19T12:51:03.447Z,4.40
2018-07-19T12:53:31.665Z,4.70
2018-07-19T12:55:59.880Z,4.27
2018-07-19T12:58:28.087Z,4.00
2018-07-19T13:00:56.327Z,4.37
2018-07-19T13:03:24.515Z,4.33
2018-07-19T13:05:52.715Z,4.80
2018-07-19T13:08:20.935Z,4.30
2018-07-19T13:10:49.166Z,4.30
2018-07-19T13:13:17.369Z,4.40
2018-07-19T13:15:45.560Z,4.83
2018-07-19T13:18:13.766Z,4.40
2018-07-19T13:20:41.957Z,4.80
2018-07-19T13:23:10.171Z,4.33
2018-07-19T13:25:38.385Z,4.20
2018-07-19T13:28:06.608Z,4.23
2018-07-19T13:30:34.802Z,4.60
2018-07-19T13:33:03.111Z,4.30
2018-07-19T13:35:31.306Z,4.00
2018-07-19T13:37:59.506Z,4.40
2018-07-19T13:40:27.703Z,4.30
2018-07-19T13:42:55.926Z,4.23
2018-07-19T13:45:24.189Z,4.00
2018-07-19T13:47:52.406Z,4.63
2018-07-19T13:50:20.615Z,4.60
2018-07-19T13:53:00.181Z,4.73
2018-07-19T13:55:28.390Z,4.17
2018-07-19T13:57:56.603Z,4.07
2018-07-19T14:00:24.803Z,4.63
2018-07-19T14:02:53.017Z,3.93
2018-07-19T14:05:21.199Z,4.63
2018-07-19T14:07:49.398Z,4.80
2018-07-19T14:10:17.594Z,4.80
2018-07-19T14:12:45.791Z,4.20
2018-07-19T14:15:13.982Z,4.70
2018-07-19T14:17:42.179Z,3.37
2018-07-19T14:20:10.394Z,3.90
2018-07-19T14:22:38.618Z,4.70
2018-07-19T14:25:06.819Z,3.67
2018-07-19T14:27:35.030Z,4.67
2018-07-19T14:30:03.229Z,4.07
2018-07-19T14:32:31.442Z,4.13
2018-07-19T14:34:59.635Z,4.50
2018-07-19T14:37:27.827Z,4.47
2018-07-19T14:39:56.054Z,4.10
2018-07-19T14:42:24.265Z,4.67
2018-07-19T14:44:52.481Z,4.50
2018-07-19T14:47:20.710Z,3.97
2018-07-19T14:49:48.907Z,4.40
2018-07-19T14:52:17.170Z,4.17
2018-07-19T14:54:45.428Z,4.30
2018-07-19T14:57:13.642Z,4.03
2018-07-19T14:59:41.890Z,4.37
2018-07-19T15:02:10.338Z,3.83
2018-07-19T15:04:38.565Z,3.60
2018-07-19T15:07:06.753Z,3.90
2018-07-19T15:09:35.043Z,3.87
2018-07-19T15:12:03.239Z,4.10
2018-07-19T15:14:31.447Z,3.97
2018-07-19T15:16:59.662Z,4.23
2018-07-19T15:19:27.880Z,3.87
2018-07-19T15:21:56.105Z,4.10
2018-07-19T15:24:24.322Z,4.37
2018-07-19T15:26:52.526Z,3.70
2018-07-19T15:29:20.791Z,4.77
2018-07-19T15:31:49.006Z,4.10
2018-07-19T15:34:17.235Z,4.33
2018-07-19T15:36:45.499Z,3.80
2018-07-19T15:39:13.719Z,4.03
2018-07-19T15:41:41.928Z,4.40
2018-07-19T15:44:10.133Z,4.93
2018-07-19T15:46:38.327Z,4.57
2018-07-19T15:49:06.530Z,4.30
2018-07-19T15:51:34.742Z,4.40
2018-07-19T15:54:02.964Z,4.23
2018-07-19T15:56:31.155Z,4.23
2018-07-19T15:58:59.383Z,4.00
2018-07-19T16:01:27.583Z,4.10
2018-07-19T16:03:55.793Z,4.07
2018-07-19T16:06:23.991Z,4.17
2018-07-19T16:08:52.245Z,4.33
2018-07-19T16:11:20.450Z,4.27
2018-07-19T16:13:48.656Z,4.10
2018-07-19T16:16:16.890Z,4.20
2018-07-19T16:18:45.077Z,4.17
2018-07-19T16:21:13.314Z,3.97
2018-07-19T16:23:41.515Z,4.30
2018-07-19T16:26:09.732Z,4.37
2018-07-19T16:28:37.935Z,4.00
2018-07-19T16:31:06.264Z,4.03
2018-07-19T16:33:34.455Z,4.63
2018-07-19T16:36:02.673Z,4.47
2018-07-19T16:38:30.877Z,3.80
2018-07-19T16:40:59.092Z,4.10
2018-07-19T16:43:27.302Z,3.97
2018-07-19T16:45:55.523Z,4.33
2018-07-19T16:48:23.735Z,4.73
2018-07-19T16:50:58.267Z,3.80
2018-07-19T16:53:26.491Z,4.03
2018-07-19T16:55:54.697Z,4.10
2018-07-19T16:58:23.079Z,4.30
2018-07-19T17:00:51.266Z,4.20
2018-07-19T17:03:19.509Z,4.00
2018-07-19T17:05:47.722Z,4.33
2018-07-19T17:08:15.937Z,4.87
2018-07-19T17:10:44.174Z,4.37
2018-07-19T17:13:12.426Z,4.23
2018-07-19T17:15:40.724Z,4.27
2018-07-19T17:18:09.156Z,4.40
2018-07-19T17:20:37.394Z,3.90
2018-07-19T17:23:05.641Z,4.10
2018-07-19T17:25:33.899Z,4.70
2018-07-19T17:28:02.098Z,3.87
2018-07-19T17:30:30.342Z,4.33
2018-07-19T17:32:58.539Z,4.57
2018-07-19T17:35:26.776Z,3.80
2018-07-19T17:37:55.400Z,3.90
2018-07-19T17:40:23.606Z,4.53
2018-07-19T17:42:51.808Z,3.93
2018-07-19T17:45:20.050Z,3.87
2018-07-19T17:47:48.269Z,3.80
2018-07-19T17:50:16.459Z,4.33
2018-07-19T17:52:44.669Z,4.10
2018-07-19T17:55:12.887Z,4.17
2018-07-19T17:57:41.115Z,3.90
2018-07-19T18:00:09.363Z,3.90
2018-07-19T18:02:37.586Z,4.47
2018-07-19T18:05:05.902Z,4.20
2018-07-19T18:07:34.128Z,4.30
2018-07-19T18:10:02.317Z,4.37
2018-07-19T18:12:30.543Z,4.00
2018-07-19T18:14:58.752Z,4.17
2018-07-19T18:17:26.958Z,4.60
2018-07-19T18:19:55.161Z,5.00
2018-07-19T18:22:23.406Z,5.20
2018-07-19T18:24:51.613Z,4.63
2018-07-19T18:27:19.882Z,4.40
2018-07-19T18:29:48.101Z,4.33
2018-07-19T18:32:16.330Z,4.80
2018-07-19T18:34:44.588Z,4.47
2018-07-19T18:37:12.778Z,4.17
2018-07-19T18:39:41.044Z,3.80
2018-07-19T18:42:09.345Z,4.47
2018-07-19T18:44:37.547Z,4.00
2018-07-19T18:47:05.846Z,4.10
2018-07-19T18:49:34.032Z,4.33
2018-07-19T18:52:02.634Z,4.00
2018-07-19T18:54:30.846Z,3.90
2018-07-19T18:56:59.066Z,4.23
2018-07-19T18:59:27.362Z,4.43
2018-07-19T19:01:55.562Z,4.70
2018-07-19T19:04:23.764Z,4.00
2018-07-19T19:06:51.960Z,4.23
2018-07-19T19:09:20.231Z,3.93
2018-07-19T19:11:48.455Z,4.20
2018-07-19T19:14:16.702Z,4.13
2018-07-19T19:16:44.914Z,4.33
2018-07-19T19:19:13.126Z,5.30
2018-07-19T19:21:41.465Z,6.50
2018-07-19T19:24:09.691Z,9.83
2018-07-19T19:26:37.939Z,24.57
2018-07-19T19:29:06.141Z,25.63
2018-07-19T19:31:34.436Z,21.27
2018-07-19T19:34:02.630Z,15.13
2018-07-19T19:36:31.057Z,13.17
2018-07-19T19:38:59.266Z,8.13
2018-07-19T19:41:27.517Z,9.10
2018-07-19T19:43:55.722Z,7.70
2018-07-19T19:46:23.954Z,6.67
2018-07-19T19:48:52.146Z,5.40
2018-07-19T19:51:20.369Z,5.70
2018-07-19T19:53:48.579Z,5.40
2018-07-19T19:56:16.797Z,5.37
2018-07-19T19:58:45.066Z,5.33
2018-07-19T20:01:13.278Z,5.20
2018-07-19T20:03:41.487Z,4.40
2018-07-19T20:06:09.714Z,4.20
2018-07-19T20:08:37.915Z,4.90
2018-07-19T20:11:06.151Z,4.50
2018-07-19T20:13:34.349Z,4.57
2018-07-19T20:16:02.586Z,4.17
2018-07-19T20:18:30.786Z,4.63
2018-07-19T20:20:58.995Z,4.80
2018-07-19T20:23:27.191Z,4.60
2018-07-19T20:25:55.399Z,4.27
2018-07-19T20:28:23.595Z,4.60
2018-07-19T20:30:51.820Z,4.70
2018-07-19T20:33:20.018Z,4.27
2018-07-19T20:35:48.234Z,4.53
2018-07-19T20:38:16.472Z,4.50
2018-07-19T20:40:45.494Z,4.13
2018-07-19T20:43:13.707Z,5.00
2018-07-19T20:45:41.916Z,4.90
2018-07-19T20:48:10.124Z,5.07
2018-07-19T20:50:38.333Z,5.10
2018-07-19T20:53:06.564Z,4.67
2018-07-19T20:55:34.801Z,4.20
2018-07-19T20:58:03.014Z,4.53
2018-07-19T21:00:31.227Z,4.77
2018-07-19T21:02:59.420Z,4.63
2018-07-19T21:05:27.634Z,4.43
2018-07-19T21:07:55.822Z,4.47
2018-07-19T21:10:24.038Z,5.17
2018-07-19T21:12:52.268Z,5.10
2018-07-19T21:15:20.470Z,5.30
2018-07-19T21:17:48.662Z,4.70
2018-07-19T21:20:16.869Z,5.00
2018-07-19T21:22:45.066Z,4.77
2018-07-19T21:25:13.281Z,4.77
2018-07-19T21:27:41.502Z,4.73
2018-07-19T21:30:09.711Z,4.53
2018-07-19T21:32:37.905Z,4.40
2018-07-19T21:35:06.233Z,5.10
2018-07-19T21:37:34.444Z,5.00
2018-07-19T21:40:02.669Z,5.10
2018-07-19T21:42:30.875Z,5.00
2018-07-19T21:44:59.071Z,4.40
2018-07-19T21:47:27.282Z,5.00
2018-07-19T21:49:55.521Z,5.10
2018-07-19T21:52:23.738Z,4.97
2018-07-19T21:54:51.933Z,5.20
2018-07-19T21:57:20.249Z,5.10
2018-07-19T21:59:48.450Z,4.73
2018-07-19T22:02:16.677Z,4.80
2018-07-19T22:04:44.868Z,4.93
2018-07-19T22:07:13.081Z,4.67
2018-07-19T22:09:41.322Z,5.10
2018-07-19T22:12:09.495Z,4.63
2018-07-19T22:14:37.695Z,5.03
2018-07-19T22:17:05.928Z,4.40
2018-07-19T22:19:34.123Z,4.90
2018-07-19T22:22:02.372Z,4.90
2018-07-19T22:24:30.566Z,5.87
2018-07-19T22:26:58.802Z,4.90
2018-07-19T22:29:26.995Z,5.20
2018-07-19T22:31:55.223Z,4.93
2018-07-19T22:34:23.410Z,5.30
2018-07-19T22:36:51.622Z,5.17
2018-07-19T22:39:19.834Z,5.00
2018-07-19T22:41:48.057Z,5.10
2018-07-19T22:44:16.257Z,4.67
2018-07-19T22:46:44.862Z,5.57
2018-07-19T22:49:13.068Z,5.50
2018-07-19T22:51:41.269Z,5.13
2018-07-19T22:54:09.503Z,5.37
2018-07-19T22:56:37.712Z,5.07
2018-07-19T22:59:06.018Z,5.33
2018-07-19T23:01:34.237Z,5.20
2018-07-19T23:04:02.472Z,5.57
2018-07-19T23:06:30.671Z,6.20
2018-07-19T23:08:58.887Z,5.17
2018-07-19T23:11:27.074Z,5.17
2018-07-19T23:13:55.284Z,5.60
2018-07-19T23:16:23.480Z,5.93
2018-07-19T23:18:51.688Z,5.07
2018-07-19T23:21:19.886Z,5.50
2018-07-19T23:23:48.095Z,5.20
2018-07-19T23:26:16.297Z,5.97
2018-07-19T23:28:44.511Z,5.20
2018-07-19T23:31:13.681Z,5.13
2018-07-19T23:33:41.904Z,6.10
2018-07-19T23:36:14.106Z,5.37
2018-07-19T23:38:49.134Z,5.50
2018-07-19T23:41:21.402Z,5.20
2018-07-19T23:43:53.200Z,5.63
2018-07-19T23:46:25.646Z,5.90
2018-07-19T23:48:55.201Z,5.60
2018-07-19T23:51:23.374Z,5.93
2018-07-19T23:53:51.599Z,6.37
2018-07-19T23:56:19.819Z,5.90
2018-07-19T23:58:48.047Z,5.77
